TimePDT,TemperatureF,Dew PointF,Humidity,Sea Level PressureIn,VisibilityMPH,Wind Direction,Wind SpeedMPH,Gust SpeedMPH,PrecipitationIn,Events,Conditions,WindDirDegrees,DateUTC
12:58 AM,38.3,33.3,82,30.24,10.0,East,2.3,-,N/A,,Clear,90,2012-10-06 07:58:00
1:58 AM,36.7,31.5,81,30.24,10.0,Calm,Calm,-,N/A,,Clear,0,2012-10-06 08:58:00
2:58 AM,36.0,31.6,84,30.24,10.0,SSE,1.2,-,N/A,,Clear,160,2012-10-06 09:58:00
3:58 AM,33.6,30.7,89,30.23,10.0,South,2.3,-,N/A,,Clear,170,2012-10-06 10:58:00
4:58 AM,32.4,29.7,90,30.23,10.0,SSE,2.3,-,N/A,,Clear,150,2012-10-06 11:58:00
5:58 AM,31.3,28.2,88,30.24,10.0,SSE,2.3,-,N/A,,Clear,150,2012-10-06 12:58:00
6:58 AM,31.3,29.7,94,30.24,10.0,Calm,Calm,-,N/A,,Clear,30,2012-10-06 13:58:00
7:58 AM,31.5,29.1,91,30.25,10.0,Calm,Calm,-,N/A,,Clear,30,2012-10-06 14:58:00
8:58 AM,39.9,33.6,78,30.24,10.0,South,2.3,-,N/A,,Clear,180,2012-10-06 15:58:00
9:58 AM,50.4,37.8,62,30.25,10.0,Variable,1.2,-,N/A,,Clear,0,2012-10-06 16:58:00
10:58 AM,59.5,39.4,47,30.24,10.0,Variable,3.5,-,N/A,,Clear,0,2012-10-06 17:58:00
11:58 AM,65.8,34.0,31,30.22,10.0,NNE,8.1,-,N/A,,Clear,30,2012-10-06 18:58:00
12:58 PM,67.5,32.4,27,30.22,10.0,Variable,4.6,-,N/A,,Clear,0,2012-10-06 19:58:00
1:58 PM,69.8,34.7,27,30.19,10.0,NNW,8.1,-,N/A,,Clear,340,2012-10-06 20:58:00
2:58 PM,72.9,31.1,21,30.17,10.0,North,6.9,-,N/A,,Clear,10,2012-10-06 21:58:00
3:58 PM,73.4,30.7,21,30.16,10.0,North,6.9,-,N/A,,Clear,10,2012-10-06 22:58:00
4:58 PM,72.5,29.7,21,30.14,10.0,NNE,9.2,-,N/A,,Clear,30,2012-10-06 23:58:00
5:58 PM,69.4,28.2,21,30.13,10.0,NNE,5.8,-,N/A,,Clear,20,2012-10-07 00:58:00
6:58 PM,64.4,25.2,23,30.13,10.0,NNE,5.8,-,N/A,,Clear,30,2012-10-07 01:58:00
7:58 PM,61.7,32.5,33,30.13,10.0,North,5.8,-,N/A,,Clear,10,2012-10-07 02:58:00
8:58 PM,61.0,36.1,40,30.12,10.0,SSW,3.5,-,N/A,,Clear,200,2012-10-07 03:58:00
9:58 PM,46.9,31.8,56,30.13,10.0,South,2.3,-,N/A,,Clear,170,2012-10-07 04:58:00
10:58 PM,44.8,34.3,67,30.12,10.0,Calm,Calm,-,N/A,,Clear,0,2012-10-07 05:58:00
11:58 PM,40.6,32.9,74,30.12,10.0,SSE,1.2,-,N/A,,Clear,150,2012-10-07 06:58:00